sensor_id;sensor_type;location;lat;lon;timestamp;temperature;humidity
24426;DHT22;12611;44.446;26.000;2022-10-16T00:01:17;12.90;77.80
24426;DHT22;12611;44.446;26.000;2022-10-16T00:03:46;12.90;77.80
24426;DHT22;12611;44.446;26.000;2022-10-16T00:06:16;12.80;77.90
24426;DHT22;12611;44.446;26.000;2022-10-16T00:08:45;12.80;78.70
24426;DHT22;12611;44.446;26.000;2022-10-16T00:11:15;12.80;77.90
24426;DHT22;12611;44.446;26.000;2022-10-16T00:13:48;12.80;77.90
24426;DHT22;12611;44.446;26.000;2022-10-16T00:16:17;12.80;78.00
24426;DHT22;12611;44.446;26.000;2022-10-16T00:18:46;12.80;78.40
24426;DHT22;12611;44.446;26.000;2022-10-16T00:21:16;12.70;78.30
24426;DHT22;12611;44.446;26.000;2022-10-16T00:23:45;12.80;78.30
24426;DHT22;12611;44.446;26.000;2022-10-16T00:26:15;12.70;78.20
24426;DHT22;12611;44.446;26.000;2022-10-16T00:28:47;12.70;78.20
24426;DHT22;12611;44.446;26.000;2022-10-16T00:31:17;12.60;78.20
24426;DHT22;12611;44.446;26.000;2022-10-16T00:33:46;12.70;78.30
24426;DHT22;12611;44.446;26.000;2022-10-16T00:36:16;12.60;78.50
24426;DHT22;12611;44.446;26.000;2022-10-16T00:38:45;12.60;78.40
24426;DHT22;12611;44.446;26.000;2022-10-16T00:41:15;12.60;78.40
24426;DHT22;12611;44.446;26.000;2022-10-16T00:43:46;12.60;78.50
24426;DHT22;12611;44.446;26.000;2022-10-16T00:46:17;12.60;78.40
24426;DHT22;12611;44.446;26.000;2022-10-16T00:48:49;12.50;78.30
24426;DHT22;12611;44.446;26.000;2022-10-16T00:51:23;12.60;78.40
24426;DHT22;12611;44.446;26.000;2022-10-16T00:53:53;12.50;78.50
24426;DHT22;12611;44.446;26.000;2022-10-16T00:56:22;12.50;78.60
24426;DHT22;12611;44.446;26.000;2022-10-16T00:58:52;12.50;78.70
24426;DHT22;12611;44.446;26.000;2022-10-16T01:01:21;12.40;78.90
24426;DHT22;12611;44.446;26.000;2022-10-16T01:03:49;12.50;78.90
24426;DHT22;12611;44.446;26.000;2022-10-16T01:06:23;12.40;78.80
24426;DHT22;12611;44.446;26.000;2022-10-16T01:09:02;12.40;78.90
24426;DHT22;12611;44.446;26.000;2022-10-16T01:11:35;12.40;78.90
24426;DHT22;12611;44.446;26.000;2022-10-16T01:14:16;12.30;78.80
24426;DHT22;12611;44.446;26.000;2022-10-16T01:16:53;12.30;78.80
24426;DHT22;12611;44.446;26.000;2022-10-16T01:19:35;12.40;78.80
24426;DHT22;12611;44.446;26.000;2022-10-16T01:22:05;12.30;78.80
24426;DHT22;12611;44.446;26.000;2022-10-16T01:24:40;12.30;78.90
24426;DHT22;12611;44.446;26.000;2022-10-16T01:27:12;12.30;78.80
24426;DHT22;12611;44.446;26.000;2022-10-16T01:29:48;12.30;78.90
24426;DHT22;12611;44.446;26.000;2022-10-16T01:32:20;12.30;79.00
24426;DHT22;12611;44.446;26.000;2022-10-16T01:34:52;12.20;79.10
24426;DHT22;12611;44.446;26.000;2022-10-16T01:37:31;12.20;79.40
24426;DHT22;12611;44.446;26.000;2022-10-16T01:40:03;12.20;79.40
24426;DHT22;12611;44.446;26.000;2022-10-16T01:42:37;12.20;79.40
24426;DHT22;12611;44.446;26.000;2022-10-16T01:45:08;12.20;79.40
24426;DHT22;12611;44.446;26.000;2022-10-16T01:47:40;12.10;79.40
24426;DHT22;12611;44.446;26.000;2022-10-16T01:50:11;12.10;79.50
24426;DHT22;12611;44.446;26.000;2022-10-16T01:52:43;12.10;79.40
24426;DHT22;12611;44.446;26.000;2022-10-16T01:55:15;12.20;79.50
24426;DHT22;12611;44.446;26.000;2022-10-16T01:57:47;12.10;79.60
24426;DHT22;12611;44.446;26.000;2022-10-16T02:00:19;12.10;79.70
24426;DHT22;12611;44.446;26.000;2022-10-16T02:02:50;12.10;79.70
24426;DHT22;12611;44.446;26.000;2022-10-16T02:05:23;12.10;79.70
24426;DHT22;12611;44.446;26.000;2022-10-16T02:07:53;12.10;79.70
24426;DHT22;12611;44.446;26.000;2022-10-16T02:10:25;12.10;79.70
24426;DHT22;12611;44.446;26.000;2022-10-16T02:13:03;12.10;79.70
24426;DHT22;12611;44.446;26.000;2022-10-16T02:15:33;12.10;79.70
24426;DHT22;12611;44.446;26.000;2022-10-16T02:18:01;12.10;80.70
24426;DHT22;12611;44.446;26.000;2022-10-16T02:20:32;12.10;79.90
24426;DHT22;12611;44.446;26.000;2022-10-16T02:23:03;12.10;79.90
24426;DHT22;12611;44.446;26.000;2022-10-16T02:25:34;12.00;80.00
24426;DHT22;12611;44.446;26.000;2022-10-16T02:28:08;12.00;80.00
24426;DHT22;12611;44.446;26.000;2022-10-16T02:30:43;12.00;80.10
24426;DHT22;12611;44.446;26.000;2022-10-16T02:33:14;11.90;80.20
24426;DHT22;12611;44.446;26.000;2022-10-16T02:35:44;11.90;80.10
24426;DHT22;12611;44.446;26.000;2022-10-16T02:38:15;11.90;80.10
24426;DHT22;12611;44.446;26.000;2022-10-16T02:40:44;11.90;80.30
24426;DHT22;12611;44.446;26.000;2022-10-16T02:43:14;11.90;80.40
24426;DHT22;12611;44.446;26.000;2022-10-16T02:45:42;11.80;80.70
24426;DHT22;12611;44.446;26.000;2022-10-16T02:48:10;11.80;80.70
24426;DHT22;12611;44.446;26.000;2022-10-16T02:50:42;11.80;80.80
24426;DHT22;12611;44.446;26.000;2022-10-16T02:53:10;11.70;81.00
24426;DHT22;12611;44.446;26.000;2022-10-16T02:55:38;11.70;80.80
24426;DHT22;12611;44.446;26.000;2022-10-16T02:58:06;11.70;80.90
24426;DHT22;12611;44.446;26.000;2022-10-16T03:00:36;11.70;81.00
24426;DHT22;12611;44.446;26.000;2022-10-16T03:03:04;11.70;81.20
24426;DHT22;12611;44.446;26.000;2022-10-16T03:05:33;11.70;81.10
24426;DHT22;12611;44.446;26.000;2022-10-16T03:08:01;11.70;81.20
24426;DHT22;12611;44.446;26.000;2022-10-16T03:10:29;11.70;81.20
24426;DHT22;12611;44.446;26.000;2022-10-16T03:12:57;11.70;81.20
24426;DHT22;12611;44.446;26.000;2022-10-16T03:15:25;11.60;81.20
24426;DHT22;12611;44.446;26.000;2022-10-16T03:17:57;11.60;81.30
24426;DHT22;12611;44.446;26.000;2022-10-16T03:20:25;11.60;81.30
24426;DHT22;12611;44.446;26.000;2022-10-16T03:22:54;11.60;81.30
24426;DHT22;12611;44.446;26.000;2022-10-16T03:25:22;11.60;81.30
24426;DHT22;12611;44.446;26.000;2022-10-16T03:27:51;11.60;81.30
24426;DHT22;12611;44.446;26.000;2022-10-16T03:30:20;11.60;81.30
24426;DHT22;12611;44.446;26.000;2022-10-16T03:32:48;11.60;81.40
24426;DHT22;12611;44.446;26.000;2022-10-16T03:35:22;11.60;81.30
24426;DHT22;12611;44.446;26.000;2022-10-16T03:37:51;11.60;81.30
24426;DHT22;12611;44.446;26.000;2022-10-16T03:40:20;11.60;81.20
24426;DHT22;12611;44.446;26.000;2022-10-16T03:42:48;11.50;81.10
24426;DHT22;12611;44.446;26.000;2022-10-16T03:45:16;11.60;81.20
24426;DHT22;12611;44.446;26.000;2022-10-16T03:47:45;11.60;81.20
24426;DHT22;12611;44.446;26.000;2022-10-16T03:50:14;11.60;81.10
24426;DHT22;12611;44.446;26.000;2022-10-16T03:52:50;11.60;81.00
24426;DHT22;12611;44.446;26.000;2022-10-16T03:55:21;11.60;80.90
24426;DHT22;12611;44.446;26.000;2022-10-16T03:57:50;11.60;80.90
24426;DHT22;12611;44.446;26.000;2022-10-16T04:00:18;11.60;80.90
24426;DHT22;12611;44.446;26.000;2022-10-16T04:02:46;11.60;80.90
24426;DHT22;12611;44.446;26.000;2022-10-16T04:05:14;11.60;80.90
24426;DHT22;12611;44.446;26.000;2022-10-16T04:07:44;11.50;80.80
24426;DHT22;12611;44.446;26.000;2022-10-16T04:10:12;11.50;80.80
24426;DHT22;12611;44.446;26.000;2022-10-16T04:12:41;11.50;80.80
24426;DHT22;12611;44.446;26.000;2022-10-16T04:15:09;11.50;80.70
24426;DHT22;12611;44.446;26.000;2022-10-16T04:17:38;11.50;80.80
24426;DHT22;12611;44.446;26.000;2022-10-16T04:20:06;11.50;80.70
24426;DHT22;12611;44.446;26.000;2022-10-16T04:22:35;11.50;80.80
24426;DHT22;12611;44.446;26.000;2022-10-16T04:25:05;11.40;80.70
24426;DHT22;12611;44.446;26.000;2022-10-16T04:27:34;11.40;80.80
24426;DHT22;12611;44.446;26.000;2022-10-16T04:30:02;11.40;80.70
24426;DHT22;12611;44.446;26.000;2022-10-16T04:32:31;11.40;81.60
24426;DHT22;12611;44.446;26.000;2022-10-16T04:34:59;11.30;80.90
24426;DHT22;12611;44.446;26.000;2022-10-16T04:37:27;11.30;80.90
24426;DHT22;12611;44.446;26.000;2022-10-16T04:39:56;11.30;80.90
24426;DHT22;12611;44.446;26.000;2022-10-16T04:42:25;11.30;81.00
24426;DHT22;12611;44.446;26.000;2022-10-16T04:44:53;11.30;81.20
24426;DHT22;12611;44.446;26.000;2022-10-16T04:47:22;11.20;81.20
24426;DHT22;12611;44.446;26.000;2022-10-16T04:49:51;11.20;81.50
24426;DHT22;12611;44.446;26.000;2022-10-16T04:52:19;11.20;81.80
24426;DHT22;12611;44.446;26.000;2022-10-16T04:54:48;11.10;81.80
24426;DHT22;12611;44.446;26.000;2022-10-16T04:57:17;11.20;81.90
24426;DHT22;12611;44.446;26.000;2022-10-16T04:59:47;11.10;81.90
24426;DHT22;12611;44.446;26.000;2022-10-16T05:02:15;11.10;82.10
24426;DHT22;12611;44.446;26.000;2022-10-16T05:04:43;11.10;82.10
24426;DHT22;12611;44.446;26.000;2022-10-16T05:07:11;11.10;82.20
24426;DHT22;12611;44.446;26.000;2022-10-16T05:09:40;11.10;82.20
24426;DHT22;12611;44.446;26.000;2022-10-16T05:12:08;11.10;82.40
24426;DHT22;12611;44.446;26.000;2022-10-16T05:14:36;11.10;82.70
24426;DHT22;12611;44.446;26.000;2022-10-16T05:17:06;11.10;82.80
24426;DHT22;12611;44.446;26.000;2022-10-16T05:19:34;11.10;82.90
24426;DHT22;12611;44.446;26.000;2022-10-16T05:22:02;11.10;82.80
24426;DHT22;12611;44.446;26.000;2022-10-16T05:24:31;11.10;83.00
24426;DHT22;12611;44.446;26.000;2022-10-16T05:26:59;11.10;83.00
24426;DHT22;12611;44.446;26.000;2022-10-16T05:29:27;11.20;83.30
24426;DHT22;12611;44.446;26.000;2022-10-16T05:31:55;11.20;83.20
24426;DHT22;12611;44.446;26.000;2022-10-16T05:34:25;11.20;83.10
24426;DHT22;12611;44.446;26.000;2022-10-16T05:36:53;11.30;83.10
24426;DHT22;12611;44.446;26.000;2022-10-16T05:39:21;11.30;83.10
24426;DHT22;12611;44.446;26.000;2022-10-16T05:41:50;11.40;83.10
24426;DHT22;12611;44.446;26.000;2022-10-16T05:44:19;11.40;83.10
24426;DHT22;12611;44.446;26.000;2022-10-16T05:46:47;11.40;83.20
24426;DHT22;12611;44.446;26.000;2022-10-16T05:49:16;11.50;83.10
24426;DHT22;12611;44.446;26.000;2022-10-16T05:51:45;11.50;83.10
24426;DHT22;12611;44.446;26.000;2022-10-16T05:54:14;11.60;83.30
24426;DHT22;12611;44.446;26.000;2022-10-16T05:56:42;11.60;83.40
24426;DHT22;12611;44.446;26.000;2022-10-16T05:59:10;11.60;83.40
24426;DHT22;12611;44.446;26.000;2022-10-16T06:01:39;11.70;83.50
24426;DHT22;12611;44.446;26.000;2022-10-16T06:04:08;11.70;83.40
24426;DHT22;12611;44.446;26.000;2022-10-16T06:06:37;11.70;83.50
24426;DHT22;12611;44.446;26.000;2022-10-16T06:09:07;11.80;83.40
24426;DHT22;12611;44.446;26.000;2022-10-16T06:11:36;11.90;83.40
24426;DHT22;12611;44.446;26.000;2022-10-16T06:14:05;11.90;83.30
24426;DHT22;12611;44.446;26.000;2022-10-16T06:16:35;12.00;83.30
24426;DHT22;12611;44.446;26.000;2022-10-16T06:19:03;12.10;83.30
24426;DHT22;12611;44.446;26.000;2022-10-16T06:21:33;12.10;83.20
24426;DHT22;12611;44.446;26.000;2022-10-16T06:24:01;12.20;83.30
24426;DHT22;12611;44.446;26.000;2022-10-16T06:26:31;12.30;83.40
24426;DHT22;12611;44.446;26.000;2022-10-16T06:28:59;12.40;83.30
24426;DHT22;12611;44.446;26.000;2022-10-16T06:31:28;12.40;83.20
24426;DHT22;12611;44.446;26.000;2022-10-16T06:33:58;12.50;82.90
24426;DHT22;12611;44.446;26.000;2022-10-16T06:36:26;12.60;82.70
24426;DHT22;12611;44.446;26.000;2022-10-16T06:38:54;12.70;82.40
24426;DHT22;12611;44.446;26.000;2022-10-16T06:41:23;12.70;82.10
24426;DHT22;12611;44.446;26.000;2022-10-16T06:43:53;12.90;82.00
24426;DHT22;12611;44.446;26.000;2022-10-16T06:46:23;12.90;80.60
24426;DHT22;12611;44.446;26.000;2022-10-16T06:48:53;13.00;80.50
24426;DHT22;12611;44.446;26.000;2022-10-16T06:51:22;13.00;79.80
24426;DHT22;12611;44.446;26.000;2022-10-16T06:53:53;13.10;80.00
24426;DHT22;12611;44.446;26.000;2022-10-16T06:56:31;13.20;79.90
24426;DHT22;12611;44.446;26.000;2022-10-16T06:59:02;13.30;79.60
24426;DHT22;12611;44.446;26.000;2022-10-16T07:01:30;13.40;79.60
24426;DHT22;12611;44.446;26.000;2022-10-16T07:04:00;13.40;79.10
24426;DHT22;12611;44.446;26.000;2022-10-16T07:06:32;13.50;78.80
24426;DHT22;12611;44.446;26.000;2022-10-16T07:09:04;13.60;78.20
24426;DHT22;12611;44.446;26.000;2022-10-16T07:11:33;13.60;78.20
24426;DHT22;12611;44.446;26.000;2022-10-16T07:14:03;13.70;77.90
24426;DHT22;12611;44.446;26.000;2022-10-16T07:16:32;13.80;78.20
24426;DHT22;12611;44.446;26.000;2022-10-16T07:19:02;13.90;77.20
24426;DHT22;12611;44.446;26.000;2022-10-16T07:21:32;14.00;77.40
24426;DHT22;12611;44.446;26.000;2022-10-16T07:24:04;14.00;76.80
24426;DHT22;12611;44.446;26.000;2022-10-16T07:26:34;14.10;76.70
24426;DHT22;12611;44.446;26.000;2022-10-16T07:29:04;14.20;76.60
24426;DHT22;12611;44.446;26.000;2022-10-16T07:31:33;14.20;76.20
24426;DHT22;12611;44.446;26.000;2022-10-16T07:34:01;14.30;75.60
24426;DHT22;12611;44.446;26.000;2022-10-16T07:36:29;14.40;75.50
24426;DHT22;12611;44.446;26.000;2022-10-16T07:38:58;14.40;75.60
24426;DHT22;12611;44.446;26.000;2022-10-16T07:41:27;14.50;75.40
24426;DHT22;12611;44.446;26.000;2022-10-16T07:43:56;14.60;75.50
24426;DHT22;12611;44.446;26.000;2022-10-16T07:46:28;14.70;75.30
24426;DHT22;12611;44.446;26.000;2022-10-16T07:48:57;14.70;75.00
24426;DHT22;12611;44.446;26.000;2022-10-16T07:51:26;14.80;74.80
24426;DHT22;12611;44.446;26.000;2022-10-16T07:53:54;14.90;74.60
24426;DHT22;12611;44.446;26.000;2022-10-16T07:56:23;14.90;73.00
24426;DHT22;12611;44.446;26.000;2022-10-16T07:58:52;15.00;73.10
24426;DHT22;12611;44.446;26.000;2022-10-16T08:01:20;15.10;73.00
24426;DHT22;12611;44.446;26.000;2022-10-16T08:03:51;15.10;73.30
24426;DHT22;12611;44.446;26.000;2022-10-16T08:06:21;15.20;72.70
24426;DHT22;12611;44.446;26.000;2022-10-16T08:08:54;15.30;72.70
24426;DHT22;12611;44.446;26.000;2022-10-16T08:11:23;15.30;71.60
24426;DHT22;12611;44.446;26.000;2022-10-16T08:13:51;15.40;71.90
24426;DHT22;12611;44.446;26.000;2022-10-16T08:16:20;15.50;72.00
24426;DHT22;12611;44.446;26.000;2022-10-16T08:18:50;15.50;72.00
24426;DHT22;12611;44.446;26.000;2022-10-16T08:21:20;15.60;71.60
24426;DHT22;12611;44.446;26.000;2022-10-16T08:23:50;15.70;71.30
24426;DHT22;12611;44.446;26.000;2022-10-16T08:26:25;15.70;71.20
24426;DHT22;12611;44.446;26.000;2022-10-16T08:28:54;15.80;70.10
24426;DHT22;12611;44.446;26.000;2022-10-16T08:31:23;15.80;69.80
24426;DHT22;12611;44.446;26.000;2022-10-16T08:33:54;15.90;70.20
24426;DHT22;12611;44.446;26.000;2022-10-16T08:36:23;15.90;69.80
24426;DHT22;12611;44.446;26.000;2022-10-16T08:38:51;16.00;69.10
24426;DHT22;12611;44.446;26.000;2022-10-16T08:41:32;16.00;68.70
24426;DHT22;12611;44.446;26.000;2022-10-16T08:44:22;16.10;68.60
24426;DHT22;12611;44.446;26.000;2022-10-16T08:46:59;16.20;68.40
24426;DHT22;12611;44.446;26.000;2022-10-16T08:49:32;16.30;68.70
24426;DHT22;12611;44.446;26.000;2022-10-16T08:52:00;16.30;67.90
24426;DHT22;12611;44.446;26.000;2022-10-16T08:54:31;16.40;68.20
24426;DHT22;12611;44.446;26.000;2022-10-16T08:57:09;16.50;68.10
24426;DHT22;12611;44.446;26.000;2022-10-16T08:59:38;16.50;68.20
24426;DHT22;12611;44.446;26.000;2022-10-16T09:02:23;16.60;68.10
24426;DHT22;12611;44.446;26.000;2022-10-16T09:05:18;16.70;68.10
24426;DHT22;12611;44.446;26.000;2022-10-16T09:07:54;16.70;67.40
24426;DHT22;12611;44.446;26.000;2022-10-16T09:10:41;16.80;66.90
24426;DHT22;12611;44.446;26.000;2022-10-16T09:13:19;16.80;66.40
24426;DHT22;12611;44.446;26.000;2022-10-16T09:16:23;16.90;66.70
24426;DHT22;12611;44.446;26.000;2022-10-16T09:19:16;16.90;65.80
24426;DHT22;12611;44.446;26.000;2022-10-16T09:21:49;17.00;66.40
24426;DHT22;12611;44.446;26.000;2022-10-16T09:24:21;17.10;66.50
24426;DHT22;12611;44.446;26.000;2022-10-16T09:26:55;17.10;66.80
24426;DHT22;12611;44.446;26.000;2022-10-16T09:29:23;17.20;66.90
24426;DHT22;12611;44.446;26.000;2022-10-16T09:31:52;17.30;66.90
24426;DHT22;12611;44.446;26.000;2022-10-16T09:34:27;17.30;67.10
24426;DHT22;12611;44.446;26.000;2022-10-16T09:37:01;17.30;66.50
24426;DHT22;12611;44.446;26.000;2022-10-16T09:39:44;17.40;66.00
24426;DHT22;12611;44.446;26.000;2022-10-16T09:42:17;17.40;66.40
24426;DHT22;12611;44.446;26.000;2022-10-16T09:44:48;17.40;65.40
24426;DHT22;12611;44.446;26.000;2022-10-16T09:47:20;17.50;65.80
24426;DHT22;12611;44.446;26.000;2022-10-16T09:49:54;17.50;65.10
24426;DHT22;12611;44.446;26.000;2022-10-16T09:52:24;17.50;64.70
24426;DHT22;12611;44.446;26.000;2022-10-16T09:54:55;17.60;64.80
24426;DHT22;12611;44.446;26.000;2022-10-16T09:57:23;17.60;65.00
24426;DHT22;12611;44.446;26.000;2022-10-16T09:59:54;17.70;65.50
24426;DHT22;12611;44.446;26.000;2022-10-16T10:02:27;17.70;65.40
24426;DHT22;12611;44.446;26.000;2022-10-16T10:04:57;17.80;65.50
24426;DHT22;12611;44.446;26.000;2022-10-16T10:07:28;17.80;65.50
24426;DHT22;12611;44.446;26.000;2022-10-16T10:10:01;17.90;65.80
24426;DHT22;12611;44.446;26.000;2022-10-16T10:12:31;18.00;65.70
24426;DHT22;12611;44.446;26.000;2022-10-16T10:15:06;18.00;65.60
24426;DHT22;12611;44.446;26.000;2022-10-16T10:17:46;18.10;65.70
24426;DHT22;12611;44.446;26.000;2022-10-16T10:20:22;18.10;65.60
24426;DHT22;12611;44.446;26.000;2022-10-16T10:22:53;18.20;65.60
24426;DHT22;12611;44.446;26.000;2022-10-16T10:25:45;18.20;65.60
24426;DHT22;12611;44.446;26.000;2022-10-16T10:28:46;18.30;65.50
24426;DHT22;12611;44.446;26.000;2022-10-16T10:31:22;18.40;65.20
24426;DHT22;12611;44.446;26.000;2022-10-16T10:33:57;18.40;65.20
24426;DHT22;12611;44.446;26.000;2022-10-16T10:36:30;18.50;65.10
24426;DHT22;12611;44.446;26.000;2022-10-16T10:39:04;18.50;64.90
24426;DHT22;12611;44.446;26.000;2022-10-16T10:42:05;18.60;65.00
24426;DHT22;12611;44.446;26.000;2022-10-16T10:45:01;18.60;64.60
24426;DHT22;12611;44.446;26.000;2022-10-16T10:47:41;18.70;64.30
24426;DHT22;12611;44.446;26.000;2022-10-16T10:50:18;18.70;64.30
24426;DHT22;12611;44.446;26.000;2022-10-16T10:52:56;18.80;64.20
24426;DHT22;12611;44.446;26.000;2022-10-16T10:55:33;18.80;64.00
24426;DHT22;12611;44.446;26.000;2022-10-16T10:58:29;18.80;63.20
24426;DHT22;12611;44.446;26.000;2022-10-16T11:01:08;18.90;62.90
24426;DHT22;12611;44.446;26.000;2022-10-16T11:03:53;18.90;63.30
24426;DHT22;12611;44.446;26.000;2022-10-16T11:06:28;19.00;63.30
24426;DHT22;12611;44.446;26.000;2022-10-16T11:09:00;19.00;63.30
24426;DHT22;12611;44.446;26.000;2022-10-16T11:11:34;19.10;63.00
24426;DHT22;12611;44.446;26.000;2022-10-16T11:14:09;19.10;62.90
24426;DHT22;12611;44.446;26.000;2022-10-16T11:16:43;19.10;62.50
24426;DHT22;12611;44.446;26.000;2022-10-16T11:19:22;19.20;62.40
24426;DHT22;12611;44.446;26.000;2022-10-16T11:21:59;19.20;62.50
24426;DHT22;12611;44.446;26.000;2022-10-16T11:24:36;19.30;62.50
24426;DHT22;12611;44.446;26.000;2022-10-16T11:27:09;19.30;62.00
24426;DHT22;12611;44.446;26.000;2022-10-16T11:29:46;19.40;62.00
24426;DHT22;12611;44.446;26.000;2022-10-16T11:32:22;19.40;61.40
24426;DHT22;12611;44.446;26.000;2022-10-16T11:34:55;19.40;61.50
24426;DHT22;12611;44.446;26.000;2022-10-16T11:37:28;19.50;61.70
24426;DHT22;12611;44.446;26.000;2022-10-16T11:40:04;19.50;61.50
24426;DHT22;12611;44.446;26.000;2022-10-16T11:42:43;19.50;61.50
24426;DHT22;12611;44.446;26.000;2022-10-16T11:45:25;19.60;61.40
24426;DHT22;12611;44.446;26.000;2022-10-16T11:48:00;19.70;61.50
24426;DHT22;12611;44.446;26.000;2022-10-16T11:50:34;19.70;61.50
24426;DHT22;12611;44.446;26.000;2022-10-16T11:53:13;19.70;61.40
24426;DHT22;12611;44.446;26.000;2022-10-16T11:55:44;19.70;60.80
24426;DHT22;12611;44.446;26.000;2022-10-16T11:58:21;19.80;61.00
24426;DHT22;12611;44.446;26.000;2022-10-16T12:00:57;19.80;60.60
24426;DHT22;12611;44.446;26.000;2022-10-16T12:03:30;19.90;60.60
24426;DHT22;12611;44.446;26.000;2022-10-16T12:06:12;19.90;60.40
24426;DHT22;12611;44.446;26.000;2022-10-16T12:08:43;19.90;59.70
24426;DHT22;12611;44.446;26.000;2022-10-16T12:11:24;19.90;59.80
24426;DHT22;12611;44.446;26.000;2022-10-16T12:14:17;19.90;59.40
24426;DHT22;12611;44.446;26.000;2022-10-16T12:16:55;20.00;59.70
24426;DHT22;12611;44.446;26.000;2022-10-16T12:19:25;20.00;59.70
24426;DHT22;12611;44.446;26.000;2022-10-16T12:21:56;20.00;59.30
24426;DHT22;12611;44.446;26.000;2022-10-16T12:24:33;20.10;59.60
24426;DHT22;12611;44.446;26.000;2022-10-16T12:27:04;20.10;59.40
24426;DHT22;12611;44.446;26.000;2022-10-16T12:29:37;20.10;59.50
24426;DHT22;12611;44.446;26.000;2022-10-16T12:32:19;20.20;59.50
24426;DHT22;12611;44.446;26.000;2022-10-16T12:35:18;20.20;59.50
24426;DHT22;12611;44.446;26.000;2022-10-16T12:37:47;20.30;59.70
24426;DHT22;12611;44.446;26.000;2022-10-16T12:40:26;20.40;60.00
24426;DHT22;12611;44.446;26.000;2022-10-16T12:42:54;20.40;59.70
24426;DHT22;12611;44.446;26.000;2022-10-16T12:45:28;20.50;59.90
24426;DHT22;12611;44.446;26.000;2022-10-16T12:47:59;20.60;59.90
24426;DHT22;12611;44.446;26.000;2022-10-16T12:50:34;20.80;59.70
24426;DHT22;12611;44.446;26.000;2022-10-16T12:53:04;20.90;59.60
24426;DHT22;12611;44.446;26.000;2022-10-16T12:55:54;21.00;58.70
24426;DHT22;12611;44.446;26.000;2022-10-16T12:58:41;21.10;58.50
24426;DHT22;12611;44.446;26.000;2022-10-16T13:01:28;21.10;58.10
24426;DHT22;12611;44.446;26.000;2022-10-16T13:04:17;21.10;57.50
24426;DHT22;12611;44.446;26.000;2022-10-16T13:06:53;21.10;57.60
24426;DHT22;12611;44.446;26.000;2022-10-16T13:09:41;21.10;57.40
24426;DHT22;12611;44.446;26.000;2022-10-16T13:12:24;21.10;57.30
24426;DHT22;12611;44.446;26.000;2022-10-16T13:15:12;21.00;56.90
24426;DHT22;12611;44.446;26.000;2022-10-16T13:17:52;21.00;56.70
24426;DHT22;12611;44.446;26.000;2022-10-16T13:20:28;21.00;56.80
24426;DHT22;12611;44.446;26.000;2022-10-16T13:23:05;20.90;56.50
24426;DHT22;12611;44.446;26.000;2022-10-16T13:25:47;20.90;56.50
24426;DHT22;12611;44.446;26.000;2022-10-16T13:28:26;20.80;56.70
24426;DHT22;12611;44.446;26.000;2022-10-16T13:30:57;20.80;56.80
24426;DHT22;12611;44.446;26.000;2022-10-16T13:33:33;20.80;56.60
24426;DHT22;12611;44.446;26.000;2022-10-16T13:36:03;20.80;56.80
24426;DHT22;12611;44.446;26.000;2022-10-16T13:38:33;20.80;56.70
24426;DHT22;12611;44.446;26.000;2022-10-16T13:41:04;20.80;56.50
24426;DHT22;12611;44.446;26.000;2022-10-16T13:43:35;20.70;56.40
24426;DHT22;12611;44.446;26.000;2022-10-16T13:46:06;20.80;56.50
24426;DHT22;12611;44.446;26.000;2022-10-16T13:48:35;20.80;56.50
24426;DHT22;12611;44.446;26.000;2022-10-16T13:51:06;20.80;56.40
24426;DHT22;12611;44.446;26.000;2022-10-16T13:53:35;20.70;56.60
24426;DHT22;12611;44.446;26.000;2022-10-16T13:56:06;20.70;56.70
24426;DHT22;12611;44.446;26.000;2022-10-16T13:58:34;20.70;56.70
24426;DHT22;12611;44.446;26.000;2022-10-16T14:01:04;20.70;56.70
24426;DHT22;12611;44.446;26.000;2022-10-16T14:03:35;20.60;56.80
24426;DHT22;12611;44.446;26.000;2022-10-16T14:06:06;20.60;56.80
24426;DHT22;12611;44.446;26.000;2022-10-16T14:08:43;20.60;56.80
24426;DHT22;12611;44.446;26.000;2022-10-16T14:11:12;20.60;57.60
24426;DHT22;12611;44.446;26.000;2022-10-16T14:13:44;20.60;56.70
24426;DHT22;12611;44.446;26.000;2022-10-16T14:16:17;20.50;56.70
24426;DHT22;12611;44.446;26.000;2022-10-16T14:18:58;20.50;56.90
24426;DHT22;12611;44.446;26.000;2022-10-16T14:21:27;20.40;56.80
24426;DHT22;12611;44.446;26.000;2022-10-16T14:23:56;20.40;56.90
24426;DHT22;12611;44.446;26.000;2022-10-16T14:26:27;20.40;57.00
24426;DHT22;12611;44.446;26.000;2022-10-16T14:29:10;20.40;56.90
24426;DHT22;12611;44.446;26.000;2022-10-16T14:31:39;20.40;57.00
24426;DHT22;12611;44.446;26.000;2022-10-16T14:34:27;20.30;57.00
24426;DHT22;12611;44.446;26.000;2022-10-16T14:36:58;20.30;57.10
24426;DHT22;12611;44.446;26.000;2022-10-16T14:39:29;20.20;57.10
24426;DHT22;12611;44.446;26.000;2022-10-16T14:41:58;20.20;57.10
24426;DHT22;12611;44.446;26.000;2022-10-16T14:44:30;20.20;57.20
24426;DHT22;12611;44.446;26.000;2022-10-16T14:47:07;20.20;57.30
24426;DHT22;12611;44.446;26.000;2022-10-16T14:49:37;20.10;57.30
24426;DHT22;12611;44.446;26.000;2022-10-16T14:52:09;20.10;57.40
24426;DHT22;12611;44.446;26.000;2022-10-16T14:54:38;20.00;57.50
24426;DHT22;12611;44.446;26.000;2022-10-16T14:57:16;20.00;57.50
24426;DHT22;12611;44.446;26.000;2022-10-16T14:59:45;19.90;57.50
24426;DHT22;12611;44.446;26.000;2022-10-16T15:02:20;19.90;57.60
24426;DHT22;12611;44.446;26.000;2022-10-16T15:04:52;19.80;57.60
24426;DHT22;12611;44.446;26.000;2022-10-16T15:07:21;19.80;57.60
24426;DHT22;12611;44.446;26.000;2022-10-16T15:09:49;19.80;57.60
24426;DHT22;12611;44.446;26.000;2022-10-16T15:12:18;19.70;57.70
24426;DHT22;12611;44.446;26.000;2022-10-16T15:14:46;19.60;57.60
24426;DHT22;12611;44.446;26.000;2022-10-16T15:17:15;19.60;57.80
24426;DHT22;12611;44.446;26.000;2022-10-16T15:19:47;19.50;57.80
24426;DHT22;12611;44.446;26.000;2022-10-16T15:22:17;19.50;58.00
24426;DHT22;12611;44.446;26.000;2022-10-16T15:24:45;19.40;58.10
24426;DHT22;12611;44.446;26.000;2022-10-16T15:27:14;19.30;58.20
24426;DHT22;12611;44.446;26.000;2022-10-16T15:29:42;19.30;58.30
24426;DHT22;12611;44.446;26.000;2022-10-16T15:32:10;19.20;58.70
24426;DHT22;12611;44.446;26.000;2022-10-16T15:34:39;19.20;58.80
24426;DHT22;12611;44.446;26.000;2022-10-16T15:37:08;19.10;58.80
24426;DHT22;12611;44.446;26.000;2022-10-16T15:39:40;19.00;58.90
24426;DHT22;12611;44.446;26.000;2022-10-16T15:42:08;18.90;59.00
24426;DHT22;12611;44.446;26.000;2022-10-16T15:44:37;18.90;59.60
24426;DHT22;12611;44.446;26.000;2022-10-16T15:47:05;18.80;59.70